createdAt,value
2022-10-05T00:01:40.250Z,20.36
2022-10-05T00:04:17.385Z,19.92
2022-10-05T00:11:19.976Z,20.41
2022-10-05T00:13:49.591Z,20.70
2022-10-05T00:16:23.692Z,20.92
2022-10-05T00:18:55.051Z,20.79
2022-10-05T00:21:28.359Z,20.90
2022-10-05T00:23:59.282Z,20.69
2022-10-05T00:27:10.704Z,20.96
2022-10-05T00:29:40.366Z,20.66
2022-10-05T00:32:13.996Z,20.91
2022-10-05T00:34:45.221Z,20.94
2022-10-05T00:37:15.541Z,20.90
2022-10-05T00:39:44.809Z,20.40
2022-10-05T00:42:29.570Z,20.60
2022-10-05T00:45:17.505Z,20.53
2022-10-05T00:48:14.618Z,21.25
2022-10-05T00:50:46.596Z,21.47
2022-10-05T00:53:48.871Z,21.84
2022-10-05T00:56:44.887Z,21.55
2022-10-05T00:59:26.069Z,22.41
2022-10-05T01:02:37.079Z,22.53
2022-10-05T01:05:17.203Z,22.08
2022-10-05T01:08:01.619Z,22.17
2022-10-05T01:10:47.396Z,22.01
2022-10-05T01:13:51.085Z,22.19
2022-10-05T01:16:28.763Z,21.65
2022-10-05T01:19:16.580Z,21.73
2022-10-05T01:22:14.915Z,21.00
2022-10-05T01:25:01.741Z,20.92
2022-10-05T01:27:56.402Z,20.65
2022-10-05T01:30:52.756Z,20.36
2022-10-05T01:33:43.237Z,20.04
2022-10-05T01:36:53.037Z,19.73
2022-10-05T01:39:52.189Z,19.43
2022-10-05T01:42:39.725Z,19.28
2022-10-05T01:45:29.134Z,19.09
2022-10-05T01:48:19.139Z,18.99
2022-10-05T01:51:21.898Z,18.85
2022-10-05T01:54:33.513Z,18.71
2022-10-05T01:57:22.168Z,18.60
2022-10-05T02:00:10.855Z,18.48
2022-10-05T02:03:05.543Z,18.23
2022-10-05T02:06:01.159Z,18.08
2022-10-05T02:08:44.581Z,18.00
2022-10-05T02:11:16.257Z,17.84
2022-10-05T02:13:59.499Z,17.74
2022-10-05T02:16:42.664Z,17.66
2022-10-05T02:19:26.603Z,17.59
2022-10-05T02:22:14.028Z,17.53
2022-10-05T02:24:53.368Z,17.54
2022-10-05T02:27:48.349Z,17.60
2022-10-05T02:30:20.030Z,17.49
2022-10-05T02:33:12.481Z,17.44
2022-10-05T02:35:42.064Z,17.39
2022-10-05T02:38:23.715Z,17.31
2022-10-05T02:41:07.191Z,17.17
2022-10-05T02:44:02.146Z,17.11
2022-10-05T02:46:42.177Z,17.09
2022-10-05T02:49:22.286Z,16.95
2022-10-05T02:52:10.824Z,16.94
2022-10-05T02:54:43.380Z,16.94
2022-10-05T02:57:27.909Z,16.88
2022-10-05T03:00:11.125Z,16.80
2022-10-05T03:02:49.232Z,16.75
2022-10-05T03:05:32.908Z,16.67
2022-10-05T03:08:10.838Z,16.40
2022-10-05T03:11:07.618Z,16.29
2022-10-05T03:14:01.653Z,16.01
2022-10-05T03:16:42.974Z,16.05
2022-10-05T03:19:49.130Z,16.21
2022-10-05T03:22:47.406Z,16.18
2022-10-05T03:25:58.348Z,16.18
2022-10-05T03:28:52.187Z,16.22
2022-10-05T03:31:40.089Z,16.20
2022-10-05T03:34:23.393Z,16.20
2022-10-05T03:37:03.658Z,16.11
2022-10-05T03:40:27.216Z,16.09
2022-10-05T03:43:25.317Z,16.09
2022-10-05T03:46:17.679Z,15.99
2022-10-05T03:49:24.220Z,16.05
2022-10-05T03:52:07.260Z,15.86
2022-10-05T03:54:40.839Z,15.86
2022-10-05T03:57:31.019Z,15.94
2022-10-05T04:00:52.834Z,15.88
2022-10-05T04:03:40.460Z,15.88
2022-10-05T04:06:32.066Z,15.79
2022-10-05T04:09:13.271Z,15.75
2022-10-05T04:11:54.575Z,15.72
2022-10-05T04:14:30.058Z,15.65
2022-10-05T04:17:13.152Z,15.55
2022-10-05T04:19:55.951Z,15.43
2022-10-05T04:22:36.275Z,15.43
2022-10-05T04:25:56.772Z,15.42
2022-10-05T04:29:00.227Z,15.38
2022-10-05T04:31:47.586Z,15.33
2022-10-05T04:34:51.908Z,15.26
2022-10-05T04:37:41.113Z,15.21
2022-10-05T04:40:19.544Z,15.19
2022-10-05T04:43:07.260Z,15.10
2022-10-05T04:45:57.939Z,15.08
2022-10-05T04:48:48.778Z,15.08
2022-10-05T04:51:37.279Z,15.05
2022-10-05T04:54:26.495Z,14.96
2022-10-05T04:57:14.449Z,14.91
2022-10-05T05:00:49.969Z,14.82
2022-10-05T05:03:56.517Z,14.83
2022-10-05T05:07:07.385Z,14.79
2022-10-05T05:09:55.040Z,14.74
2022-10-05T05:12:27.205Z,14.75
2022-10-05T05:15:08.456Z,14.70
2022-10-05T05:18:02.043Z,14.66
2022-10-05T05:20:49.429Z,14.57
2022-10-05T05:23:32.724Z,14.57
2022-10-05T05:26:20.208Z,14.53
2022-10-05T05:28:56.572Z,14.53
2022-10-05T05:31:44.249Z,14.51
2022-10-05T05:34:54.719Z,14.46
2022-10-05T05:37:27.910Z,14.42
2022-10-05T05:40:08.332Z,14.43
2022-10-05T05:43:01.611Z,14.38
2022-10-05T05:45:47.913Z,14.31
2022-10-05T05:48:25.484Z,14.19
2022-10-05T05:51:09.270Z,14.18
2022-10-05T05:53:58.898Z,14.19
2022-10-05T05:56:35.712Z,14.07
2022-10-05T05:59:16.948Z,13.98
2022-10-05T06:01:59.538Z,14.16
2022-10-05T06:04:41.732Z,14.14
2022-10-05T06:07:17.668Z,14.26
2022-10-05T06:10:37.410Z,14.28
2022-10-05T06:13:27.046Z,14.39
2022-10-05T06:16:08.481Z,14.37
2022-10-05T06:18:42.986Z,14.21
2022-10-05T06:21:50.471Z,13.93
2022-10-05T06:24:27.750Z,14.11
2022-10-05T06:27:08.845Z,14.31
2022-10-05T06:29:59.506Z,14.43
2022-10-05T06:32:44.706Z,14.51
2022-10-05T06:35:32.151Z,14.47
2022-10-05T06:38:35.949Z,14.40
2022-10-05T06:41:41.535Z,14.40
2022-10-05T06:44:17.666Z,14.35
2022-10-05T06:47:24.341Z,14.44
2022-10-05T06:50:43.777Z,14.21
2022-10-05T06:54:05.442Z,14.34
2022-10-05T06:56:41.971Z,14.43
2022-10-05T06:59:41.469Z,14.30
2022-10-05T07:02:32.383Z,14.64
2022-10-05T07:05:28.275Z,14.64
2022-10-05T07:08:12.808Z,14.52
2022-10-05T07:11:04.562Z,14.73
2022-10-05T07:14:12.030Z,14.57
2022-10-05T07:17:07.165Z,14.69
2022-10-05T07:20:05.003Z,14.84
2022-10-05T07:22:59.545Z,14.81
2022-10-05T07:25:53.695Z,14.78
2022-10-05T07:28:38.044Z,14.78
2022-10-05T07:31:13.671Z,14.83
2022-10-05T07:34:24.802Z,14.80
2022-10-05T07:37:19.510Z,14.57
2022-10-05T07:40:12.853Z,14.46
2022-10-05T07:43:00.789Z,14.49
2022-10-05T07:45:41.368Z,14.46
2022-10-05T07:48:22.863Z,14.54
2022-10-05T07:50:59.837Z,14.71
2022-10-05T07:53:47.693Z,14.95
2022-10-05T07:56:37.977Z,14.96
2022-10-05T07:59:37.624Z,14.54
2022-10-05T08:02:31.042Z,14.69
2022-10-05T08:05:10.511Z,14.60
2022-10-05T08:07:40.647Z,14.73
2022-10-05T08:10:26.072Z,14.66
2022-10-05T08:13:02.964Z,14.72
2022-10-05T08:15:44.056Z,15.06
2022-10-05T08:18:16.315Z,14.78
2022-10-05T08:20:57.905Z,14.83
2022-10-05T08:23:39.573Z,14.67
2022-10-05T08:26:50.665Z,14.74
2022-10-05T08:29:53.566Z,14.65
2022-10-05T08:33:04.290Z,14.60
2022-10-05T08:35:39.618Z,14.86
2022-10-05T08:38:19.384Z,14.76
2022-10-05T08:40:57.984Z,14.88
2022-10-05T08:43:42.036Z,14.86
2022-10-05T08:46:22.666Z,14.73
2022-10-05T08:49:35.372Z,14.71
2022-10-05T08:52:29.884Z,14.85
2022-10-05T08:55:16.146Z,14.63
2022-10-05T08:58:04.237Z,14.51
2022-10-05T09:01:09.967Z,14.57
2022-10-05T09:04:16.454Z,14.97
2022-10-05T09:07:16.474Z,14.94
2022-10-05T09:09:51.493Z,14.94
2022-10-05T09:12:57.795Z,14.96
2022-10-05T09:15:36.467Z,14.68
2022-10-05T09:18:38.454Z,14.57
2022-10-05T09:21:35.419Z,14.36
2022-10-05T09:24:37.059Z,14.84
2022-10-05T09:27:16.602Z,14.48
2022-10-05T09:30:19.372Z,14.28
2022-10-05T09:33:10.519Z,14.38
2022-10-05T09:36:07.943Z,14.59
2022-10-05T09:38:55.699Z,14.66
2022-10-05T09:41:43.442Z,14.76
2022-10-05T09:44:28.391Z,14.51
2022-10-05T09:46:57.898Z,14.63
2022-10-05T09:50:14.953Z,14.78
2022-10-05T09:52:59.130Z,14.49
2022-10-05T09:55:40.079Z,14.40
2022-10-05T09:58:46.931Z,14.61
2022-10-05T10:01:37.359Z,14.86
2022-10-05T10:04:38.229Z,14.85
2022-10-05T10:07:21.711Z,14.93
2022-10-05T10:10:05.891Z,14.93
2022-10-05T10:13:03.491Z,14.86
2022-10-05T10:15:58.609Z,14.73
2022-10-05T10:18:36.076Z,14.72
2022-10-05T10:21:47.284Z,14.62
2022-10-05T10:24:37.828Z,14.55
2022-10-05T10:27:28.456Z,14.50
2022-10-05T10:30:19.851Z,14.54
2022-10-05T10:33:27.050Z,14.53
2022-10-05T10:36:07.000Z,14.52
2022-10-05T10:38:59.362Z,14.50
2022-10-05T10:42:05.420Z,14.34
2022-10-05T10:44:55.165Z,14.35
2022-10-05T10:47:48.166Z,14.36
2022-10-05T10:50:49.669Z,14.30
2022-10-05T10:53:33.164Z,14.22
2022-10-05T10:56:23.189Z,14.39
2022-10-05T10:59:37.675Z,14.16
2022-10-05T11:02:41.827Z,14.11
2022-10-05T11:05:45.118Z,14.14
2022-10-05T11:08:59.379Z,14.14
2022-10-05T11:11:37.366Z,14.19
2022-10-05T11:14:29.705Z,14.22
2022-10-05T11:17:01.939Z,14.17
2022-10-05T11:19:46.323Z,14.24
2022-10-05T11:22:44.191Z,14.23
2022-10-05T11:25:55.725Z,14.34
2022-10-05T11:28:46.460Z,14.20
2022-10-05T11:31:52.408Z,14.28
2022-10-05T11:34:28.641Z,14.18
2022-10-05T11:37:16.783Z,14.07
2022-10-05T11:39:54.231Z,14.06
2022-10-05T11:42:28.844Z,14.23
2022-10-05T11:45:17.006Z,14.36
2022-10-05T11:48:16.996Z,14.16
2022-10-05T11:50:57.056Z,14.14
2022-10-05T11:53:33.153Z,14.61
2022-10-05T11:56:05.523Z,14.60
2022-10-05T11:58:48.671Z,14.39
2022-10-05T12:01:58.144Z,14.20
2022-10-05T12:05:02.966Z,14.10
2022-10-05T12:07:50.580Z,14.21
2022-10-05T12:10:33.605Z,14.12
2022-10-05T12:13:05.894Z,14.10
2022-10-05T12:15:51.065Z,14.11
2022-10-05T12:18:32.521Z,14.03
2022-10-05T12:21:25.970Z,14.17
2022-10-05T12:23:58.796Z,14.07
2022-10-05T12:26:37.882Z,14.31
2022-10-05T12:29:15.494Z,14.17
2022-10-05T12:32:04.662Z,14.17
2022-10-05T12:34:36.933Z,14.05
2022-10-05T12:37:37.686Z,14.02
2022-10-05T12:40:48.874Z,13.95
2022-10-05T12:43:55.079Z,13.94
2022-10-05T12:46:35.979Z,14.15
2022-10-05T12:49:23.870Z,14.22
2022-10-05T12:52:00.604Z,13.89
2022-10-05T12:54:45.060Z,14.02
2022-10-05T12:57:35.578Z,14.21
2022-10-05T13:00:07.777Z,13.98
2022-10-05T13:02:43.400Z,13.89
2022-10-05T13:05:12.469Z,14.25
2022-10-05T13:08:03.755Z,14.27
2022-10-05T13:11:01.839Z,14.48
2022-10-05T13:13:53.967Z,14.26
2022-10-05T13:16:34.977Z,14.07
2022-10-05T13:19:25.106Z,13.98
2022-10-05T13:22:24.925Z,14.31
2022-10-05T13:25:15.896Z,14.29
2022-10-05T13:28:03.475Z,14.11
2022-10-05T13:30:32.419Z,14.07
2022-10-05T13:33:09.010Z,14.22
2022-10-05T13:35:46.811Z,14.31
2022-10-05T13:38:28.092Z,14.40
2022-10-05T13:41:12.698Z,14.50
2022-10-05T13:43:44.881Z,14.10
2022-10-05T13:46:17.211Z,14.07
2022-10-05T13:49:23.205Z,14.11
2022-10-05T13:52:16.574Z,14.41
2022-10-05T13:55:23.334Z,14.51
2022-10-05T13:58:27.996Z,14.40
2022-10-05T14:01:01.879Z,14.38
2022-10-05T14:03:37.063Z,14.13
2022-10-05T14:06:30.822Z,14.18
2022-10-05T14:09:00.884Z,14.21
2022-10-05T14:11:36.367Z,14.14
2022-10-05T14:14:17.488Z,13.96
2022-10-05T14:16:58.433Z,14.00
2022-10-05T14:19:33.007Z,13.99
2022-10-05T14:22:04.758Z,14.04
2022-10-05T14:24:44.252Z,14.06
2022-10-05T14:27:49.522Z,14.13
2022-10-05T14:30:25.210Z,14.01
2022-10-05T14:33:20.015Z,14.01
2022-10-05T14:36:47.072Z,13.95
2022-10-05T14:39:32.226Z,14.00
2022-10-05T14:42:14.893Z,13.98
2022-10-05T14:45:14.015Z,13.91
2022-10-05T14:48:13.148Z,14.12
2022-10-05T14:51:00.159Z,13.91
2022-10-05T14:53:56.737Z,13.82
2022-10-05T14:56:41.453Z,13.75
2022-10-05T14:59:23.151Z,13.89
2022-10-05T15:02:25.179Z,13.81
2022-10-05T15:05:10.298Z,14.03
2022-10-05T15:07:52.055Z,14.19
2022-10-05T15:10:44.220Z,14.16
2022-10-05T15:13:29.908Z,14.22
2022-10-05T15:16:12.247Z,14.11
2022-10-05T15:18:45.390Z,14.19
2022-10-05T15:21:36.168Z,14.29
2022-10-05T15:24:11.573Z,14.48
2022-10-05T15:26:53.997Z,14.50
2022-10-05T15:29:52.206Z,14.37
2022-10-05T15:32:48.472Z,14.45
2022-10-05T15:35:45.696Z,14.51
2022-10-05T15:38:34.009Z,14.64
2022-10-05T15:41:21.353Z,14.75
2022-10-05T15:43:51.244Z,14.66
2022-10-05T15:46:34.946Z,14.69
2022-10-05T15:49:09.245Z,14.32
2022-10-05T15:51:50.984Z,14.28
2022-10-05T15:54:42.634Z,14.52
2022-10-05T15:57:39.027Z,14.60
2022-10-05T16:00:14.922Z,14.53
2022-10-05T16:03:10.718Z,14.67
2022-10-05T16:06:08.513Z,14.53
2022-10-05T16:09:12.490Z,14.61
2022-10-05T16:12:08.019Z,14.63
2022-10-05T16:14:49.066Z,14.64
2022-10-05T16:17:42.151Z,14.68
2022-10-05T16:20:52.332Z,14.71
2022-10-05T16:24:01.310Z,14.48
2022-10-05T16:26:54.481Z,14.33
2022-10-05T16:29:48.293Z,14.56
2022-10-05T16:32:23.341Z,14.39
2022-10-05T16:35:47.731Z,14.36
2022-10-05T16:38:44.389Z,14.51
2022-10-05T16:41:51.215Z,14.33
2022-10-05T16:44:45.130Z,14.21
2022-10-05T16:47:59.864Z,14.25
2022-10-05T16:50:38.470Z,14.14
2022-10-05T16:54:00.095Z,14.37
2022-10-05T16:56:51.965Z,14.47
2022-10-05T16:59:46.366Z,14.79
2022-10-05T17:02:29.208Z,14.86
2022-10-05T17:05:16.379Z,14.74
2022-10-05T17:08:16.283Z,14.72
2022-10-05T17:11:25.745Z,14.89
2022-10-05T17:14:14.870Z,14.77
2022-10-05T17:25:19.268Z,14.22
2022-10-05T17:28:37.368Z,14.70
2022-10-05T17:32:22.962Z,14.85
2022-10-05T17:35:01.687Z,14.85
2022-10-05T17:37:33.135Z,14.86
2022-10-05T17:40:43.192Z,14.86
2022-10-05T17:43:18.568Z,14.78
2022-10-05T17:45:47.796Z,14.59
2022-10-05T17:48:36.729Z,14.37
2022-10-05T17:51:57.501Z,14.74
2022-10-05T17:55:11.991Z,14.57
2022-10-05T17:57:42.759Z,14.38
2022-10-05T18:00:26.700Z,14.27
2022-10-05T18:02:58.691Z,14.11
2022-10-05T18:05:32.881Z,14.10
2022-10-05T18:12:18.868Z,14.27
2022-10-05T18:17:58.279Z,14.71
2022-10-05T18:20:31.051Z,14.80
2022-10-05T18:23:07.136Z,14.89
2022-10-05T18:25:44.920Z,14.72
2022-10-05T18:28:40.115Z,14.91
2022-10-05T18:31:12.247Z,15.10
2022-10-05T18:34:19.198Z,15.15
2022-10-05T18:36:49.840Z,15.00
2022-10-05T18:40:10.977Z,15.03
2022-10-05T18:43:17.986Z,14.95
2022-10-05T18:46:18.359Z,15.05
2022-10-05T18:48:47.604Z,15.06
2022-10-05T18:52:04.236Z,15.25
2022-10-05T18:54:51.146Z,15.29
2022-10-05T18:57:43.288Z,15.00
2022-10-05T19:00:16.709Z,14.93
2022-10-05T19:02:58.814Z,15.23
2022-10-05T19:05:59.729Z,15.30
2022-10-05T19:08:42.706Z,15.33
2022-10-05T19:11:32.693Z,15.29
2022-10-05T19:14:43.278Z,14.98
2022-10-05T19:17:40.141Z,15.13
2022-10-05T19:20:38.407Z,15.32
2022-10-05T19:23:19.628Z,15.26
2022-10-05T19:26:15.429Z,15.18
2022-10-05T19:28:50.152Z,15.25
2022-10-05T19:36:04.561Z,15.07
2022-10-05T19:39:00.380Z,15.16
2022-10-05T19:41:44.624Z,15.19
2022-10-05T19:44:37.329Z,15.05
2022-10-05T19:47:11.114Z,15.15
2022-10-05T19:49:56.230Z,15.12
2022-10-05T19:52:31.913Z,15.42
2022-10-05T19:55:32.971Z,15.43
2022-10-05T19:58:02.190Z,15.20
2022-10-05T20:00:36.903Z,15.20
2022-10-05T20:07:37.207Z,15.52
2022-10-05T20:10:32.627Z,15.06
2022-10-05T20:13:06.904Z,14.97
2022-10-05T20:15:56.307Z,15.16
2022-10-05T20:18:56.762Z,15.15
2022-10-05T20:21:44.052Z,15.21
2022-10-05T20:24:18.028Z,15.64
2022-10-05T20:27:16.212Z,14.99
2022-10-05T20:29:46.394Z,15.09
2022-10-05T20:32:21.265Z,15.27
2022-10-05T20:34:52.086Z,15.16
2022-10-05T20:37:21.789Z,15.40
2022-10-05T20:39:54.472Z,15.57
2022-10-05T20:42:27.879Z,15.64
2022-10-05T20:44:58.787Z,15.66
2022-10-05T20:47:30.391Z,15.61
2022-10-05T20:50:08.136Z,15.63
2022-10-05T20:52:39.054Z,15.59
2022-10-05T20:55:13.094Z,15.54
2022-10-05T20:57:43.564Z,15.61
2022-10-05T21:00:14.923Z,15.58
2022-10-05T21:02:44.192Z,15.49
2022-10-05T21:05:13.464Z,15.45
2022-10-05T21:07:42.899Z,15.25
2022-10-05T21:10:15.089Z,15.34
2022-10-05T21:12:44.827Z,15.20
2022-10-05T21:15:14.343Z,15.64
2022-10-05T21:17:46.217Z,15.51
2022-10-05T21:20:15.421Z,15.35
2022-10-05T21:22:44.502Z,15.40
2022-10-05T21:25:16.905Z,15.33
2022-10-05T21:27:47.230Z,15.49
2022-10-05T21:30:16.446Z,15.65
2022-10-05T21:32:45.556Z,15.77
2022-10-05T21:35:14.804Z,15.84
2022-10-05T21:37:43.892Z,15.82
2022-10-05T21:40:13.209Z,15.53
2022-10-05T21:42:45.894Z,15.82
2022-10-05T21:45:15.229Z,15.79
2022-10-05T21:47:44.641Z,15.49
2022-10-05T21:50:14.130Z,15.74
2022-10-05T21:52:43.832Z,15.75
2022-10-05T21:55:14.102Z,15.82
2022-10-05T21:57:45.008Z,15.78
2022-10-05T22:00:17.659Z,15.72
2022-10-05T22:02:47.416Z,15.59
2022-10-05T22:05:17.141Z,15.70
2022-10-05T22:07:46.550Z,15.58
2022-10-05T22:10:16.275Z,15.52
2022-10-05T22:12:49.034Z,15.70
2022-10-05T22:15:18.829Z,15.75
2022-10-05T22:17:47.983Z,15.28
2022-10-05T22:20:17.781Z,15.09
2022-10-05T22:22:47.277Z,14.92
2022-10-05T22:25:16.860Z,15.11
2022-10-05T22:27:46.549Z,14.92
2022-10-05T22:30:16.628Z,15.06
2022-10-05T22:32:48.875Z,15.04
2022-10-05T22:35:18.204Z,15.34
2022-10-05T22:37:48.149Z,15.56
2022-10-05T22:40:17.842Z,15.73
2022-10-05T22:42:47.339Z,15.79
2022-10-05T22:45:16.923Z,15.85
2022-10-05T22:47:47.249Z,15.87
2022-10-05T22:50:17.380Z,15.82
2022-10-05T22:52:53.395Z,15.89
2022-10-05T22:55:23.157Z,15.98
2022-10-05T22:57:52.372Z,16.06
2022-10-05T23:00:27.606Z,16.02
2022-10-05T23:03:00.920Z,15.52
2022-10-05T23:05:30.034Z,15.52
2022-10-05T23:07:59.124Z,15.82
2022-10-05T23:10:28.332Z,16.11
2022-10-05T23:13:01.076Z,16.08
2022-10-05T23:15:30.363Z,16.19
2022-10-05T23:18:00.098Z,16.21
2022-10-05T23:20:30.864Z,16.30
2022-10-05T23:23:01.337Z,16.32
2022-10-05T23:25:30.705Z,16.19
2022-10-05T23:28:01.418Z,16.25
2022-10-05T23:30:30.963Z,16.28
2022-10-05T23:33:00.407Z,16.45
2022-10-05T23:35:29.830Z,16.42
2022-10-05T23:38:00.583Z,16.35
2022-10-05T23:40:29.775Z,16.23
2022-10-05T23:42:59.401Z,16.30
2022-10-05T23:45:29.615Z,16.36
2022-10-05T23:48:03.015Z,16.42
2022-10-05T23:50:37.520Z,15.93
2022-10-05T23:53:08.060Z,16.01
2022-10-05T23:55:37.947Z,15.75
2022-10-05T23:58:08.010Z,16.37
